createdAt,value
2023-05-15T00:29:00.517Z,5.67
2023-05-15T00:43:52.257Z,5.99
2023-05-15T00:58:43.946Z,6.97
2023-05-15T01:13:36.023Z,6.63
2023-05-15T01:28:30.426Z,5.96
2023-05-15T01:43:25.020Z,6.76
2023-05-15T01:58:16.283Z,6.97
2023-05-15T02:13:07.791Z,5.98
2023-05-15T02:27:57.913Z,6.27
2023-05-15T02:42:49.646Z,6.51
2023-05-15T02:57:41.460Z,7.89
2023-05-15T03:12:32.735Z,6.90
2023-05-15T03:27:24.243Z,8.34
2023-05-15T03:42:19.070Z,7.34
2023-05-15T03:57:09.452Z,7.26
2023-05-15T04:12:01.979Z,8.56
2023-05-15T04:26:54.154Z,7.23
2023-05-15T04:41:46.003Z,7.38
2023-05-15T04:56:37.548Z,8.14
2023-05-15T05:11:29.706Z,9.72
2023-05-15T05:26:21.458Z,8.38
2023-05-15T05:41:14.456Z,9.24
2023-05-15T05:56:07.789Z,5.54
2023-05-15T06:11:01.170Z,5.42
2023-05-15T06:25:52.888Z,7.42
2023-05-15T06:40:44.366Z,5.36
2023-05-15T06:55:37.122Z,5.62
2023-05-15T07:10:29.718Z,6.26
2023-05-15T07:40:16.021Z,5.22
2023-05-15T08:24:56.425Z,3.60
2023-05-15T08:54:44.947Z,4.70
2023-05-15T09:39:28.401Z,4.81
2023-05-15T09:54:21.499Z,5.37
2023-05-15T10:09:14.872Z,3.92
2023-05-15T10:24:07.429Z,4.61
2023-05-15T10:39:01.365Z,3.91
2023-05-15T10:53:54.887Z,3.56
2023-05-15T11:08:50.062Z,3.44
2023-05-15T11:23:42.236Z,2.75
2023-05-15T11:38:33.046Z,2.14
2023-05-15T11:53:25.470Z,2.29
2023-05-15T12:08:19.228Z,3.86
2023-05-15T12:23:10.543Z,3.69
2023-05-15T12:38:04.732Z,2.74
2023-05-15T12:53:02.579Z,1.73
2023-05-15T13:08:02.095Z,3.55
2023-05-15T13:22:58.685Z,2.70
2023-05-15T13:37:51.850Z,3.53
2023-05-15T13:52:41.748Z,2.36
2023-05-15T14:07:26.927Z,7.95
2023-05-15T14:22:18.050Z,4.89
2023-05-15T14:37:09.461Z,4.62
2023-05-15T14:52:04.739Z,4.60
2023-05-15T15:06:57.051Z,4.20
2023-05-15T15:21:49.037Z,5.07
2023-05-15T15:36:53.620Z,2.89
2023-05-15T15:51:44.114Z,3.56
2023-05-15T16:06:37.888Z,3.75
2023-05-15T16:21:26.583Z,4.91
2023-05-15T16:36:17.829Z,7.55
2023-05-15T16:51:09.169Z,6.15
2023-05-15T17:20:52.362Z,8.26
2023-05-15T17:50:37.848Z,8.13
2023-05-15T18:05:29.358Z,6.14
2023-05-15T18:20:20.039Z,6.71
2023-05-15T18:35:12.234Z,6.99
2023-05-15T19:04:56.411Z,7.47
2023-05-15T19:34:40.865Z,6.59
2023-05-15T20:04:24.782Z,9.06
2023-05-15T20:19:16.672Z,8.58
2023-05-15T20:34:08.968Z,7.88
2023-05-15T20:49:00.714Z,8.94
2023-05-15T21:03:53.570Z,8.76
2023-05-15T21:18:45.703Z,10.44
2023-05-15T21:33:37.877Z,10.63
2023-05-15T21:48:30.108Z,11.76
2023-05-15T22:03:22.118Z,11.82
2023-05-15T22:18:14.769Z,12.26
2023-05-15T22:33:07.388Z,10.43
2023-05-15T22:47:59.112Z,10.68
2023-05-15T23:02:52.011Z,10.91
2023-05-15T23:17:43.088Z,12.69
2023-05-15T23:32:34.856Z,12.03
2023-05-15T23:47:26.158Z,16.59
